Time;durP1;ratioP1;P1;durP2;ratioP2;P2;SDS_P1;SDS_P2;PMS_P1;PMS_P2;Temp;Humidity;BMP_temperature;BMP_pressure;BME280_temperature;BME280_humidity;BME280_pressure;Samples;Min_cycle;Max_cycle;Signal;HPM_P1;HPM_P2
2022/07/01 04:31:53;;;;;;;16.42;12.65;;;;;;;23.79;81.36;100045.50;5558641;32;176480;-85
2022/07/01 04:34:56;;;;;;;18.17;12.07;;;;;;;23.88;81.38;100049.03;5553212;32;33736;-87
2022/07/01 04:37:59;;;;;;;17.90;11.90;;;;;;;24.11;80.88;100051.91;5558182;32;34207;-86
2022/07/01 04:44:23;;;;;;;16.45;11.63;;;;;;;24.47;78.64;100039.75;5559434;32;35145;-88
2022/07/01 04:47:28;;;;;;;17.33;12.27;;;;;;;24.61;78.72;100036.31;5558186;32;35162;-86
2022/07/01 04:50:31;;;;;;;17.17;11.52;;;;;;;24.82;77.57;100029.44;5556938;32;35021;-86
2022/07/01 04:53:34;;;;;;;14.13;11.07;;;;;;;24.96;77.62;100025.12;5554023;32;35046;-86
2022/07/01 04:56:37;;;;;;;19.33;11.43;;;;;;;25.17;76.59;100039.88;5553001;32;34058;-86
2022/07/01 04:59:45;;;;;;;16.98;12.30;;;;;;;25.31;76.15;100040.97;5554257;32;35058;-86
2022/07/01 05:02:48;;;;;;;23.73;14.07;;;;;;;25.55;74.77;100039.94;5547364;32;34347;-86
2022/07/01 05:05:51;;;;;;;16.02;11.75;;;;;;;25.72;73.41;100036.22;5546788;32;32611;-86
2022/07/01 05:08:53;;;;;;;19.75;13.77;;;;;;;25.91;73.57;100029.44;5558205;32;34001;-87
2022/07/01 05:11:56;;;;;;;22.27;12.30;;;;;;;26.18;72.45;100040.66;5558158;32;35215;-87
2022/07/01 05:14:58;;;;;;;25.77;13.90;;;;;;;26.26;72.34;100046.06;5546956;32;34187;-87
2022/07/01 05:24:44;;;;;;;20.77;12.15;;;;;;;29.44;60.79;100052.84;5543805;32;34070;-87
2022/07/01 05:27:47;;;;;;;19.45;12.82;;;;;;;32.21;51.51;100056.16;5543466;32;34503;-87
2022/07/01 05:30:50;;;;;;;21.17;11.98;;;;;;;34.59;43.74;100060.56;5542339;32;33704;-87
2022/07/01 05:33:54;;;;;;;19.85;11.57;;;;;;;37.45;37.20;100062.75;5542674;32;34497;-88
2022/07/01 05:36:57;;;;;;;17.98;11.02;;;;;;;39.36;33.87;100054.41;5543172;32;33629;-87
2022/07/01 05:39:59;;;;;;;20.50;10.80;;;;;;;40.06;32.23;100056.88;5543117;32;34467;-88
2022/07/01 05:43:02;;;;;;;12.20;10.13;;;;;;;40.05;31.47;100055.22;5529993;32;34682;-88
2022/07/01 05:46:05;;;;;;;15.77;10.35;;;;;;;40.39;29.85;100062.88;5529875;32;34177;-87
2022/07/01 05:49:08;;;;;;;19.27;10.77;;;;;;;40.01;30.63;100072.41;5529848;32;34810;-88
2022/07/01 05:52:16;;;;;;;15.70;9.63;;;;;;;41.69;28.11;100073.12;5529806;32;34477;-88
2022/07/01 05:55:19;;;;;;;19.55;9.88;;;;;;;41.78;28.23;100073.31;5530342;32;34603;-87
2022/07/01 05:58:21;;;;;;;22.23;10.43;;;;;;;41.97;27.95;100074.22;5530839;32;34002;-87
2022/07/01 06:01:24;;;;;;;13.02;9.07;;;;;;;42.32;27.19;100070.50;5536002;32;34773;-88
2022/07/01 06:04:27;;;;;;;18.12;9.38;;;;;;;43.06;26.42;100070.06;5529368;32;33362;-87
2022/07/01 06:07:30;;;;;;;16.08;9.05;;;;;;;43.92;24.83;100078.38;5526099;32;33759;-87
2022/07/01 06:10:34;;;;;;;12.43;8.60;;;;;;;44.02;25.00;100083.75;5512867;32;33966;-89
2022/07/01 06:13:37;;;;;;;18.08;9.43;;;;;;;44.10;25.06;100082.22;5529637;32;33709;-88
2022/07/01 06:16:40;;;;;;;14.05;9.50;;;;;;;44.30;23.89;100086.56;5529766;32;32341;-88
2022/07/01 06:19:42;;;;;;;12.77;9.27;;;;;;;43.40;25.27;100082.09;5513546;32;34072;-87
2022/07/01 06:22:46;;;;;;;17.08;9.15;;;;;;;43.19;25.59;100079.59;5510626;32;33828;-87
2022/07/01 06:25:48;;;;;;;20.88;9.23;;;;;;;43.58;25.06;100085.94;5510173;32;34197;-86
2022/07/01 06:28:51;;;;;;;17.58;9.07;;;;;;;44.09;24.28;100085.31;5510201;32;33813;-87
2022/07/01 06:31:54;;;;;;;16.42;8.55;;;;;;;42.02;26.66;100087.28;5509820;32;33601;-86
2022/07/01 06:34:57;;;;;;;13.40;7.65;;;;;;;42.01;26.97;100088.37;5510281;32;33765;-87
2022/07/01 06:37:59;;;;;;;21.30;8.30;;;;;;;40.89;28.21;100076.78;5514800;32;34899;-87
2022/07/01 06:44:27;;;;;;;14.07;8.35;;;;;;;40.58;29.12;100073.31;5532477;32;33804;-86
2022/07/01 06:47:30;;;;;;;10.55;7.25;;;;;;;39.57;30.39;100075.81;5530529;32;35059;-86
2022/07/01 06:50:32;;;;;;;14.15;8.20;;;;;;;38.29;32.68;100081.56;5529162;32;33552;-87
2022/07/01 06:53:35;;;;;;;14.35;6.90;;;;;;;38.25;33.14;100084.03;5528042;32;33776;-87
2022/07/01 06:56:38;;;;;;;13.98;7.30;;;;;;;37.66;33.27;100080.34;5526353;32;34512;-89
2022/07/01 06:59:41;;;;;;;17.23;6.75;;;;;;;36.72;34.11;100077.75;5514837;32;33327;-88
2022/07/01 07:02:43;;;;;;;13.25;7.22;;;;;;;37.67;32.92;100081.16;5570230;26;33660;-88
2022/07/01 07:05:46;;;;;;;14.00;7.30;;;;;;;37.49;33.65;100086.81;5530991;32;33931;-88
2022/07/01 07:09:22;;;;;;;14.07;7.35;;;;;;;37.21;33.89;100083.25;5562302;26;34001;-89
2022/07/01 07:12:25;;;;;;;12.70;7.55;;;;;;;36.91;34.36;100078.25;5548807;32;33237;-89
2022/07/01 07:15:28;;;;;;;16.77;7.20;;;;;;;35.78;36.41;100073.72;5550909;32;34322;-89
2022/07/01 07:18:31;;;;;;;13.52;6.87;;;;;;;36.11;36.54;100071.19;5563953;26;34009;-89
2022/07/01 07:52:16;;;;;;;16.98;6.55;;;;;;;36.19;35.37;100076.25;1971339;26;20096;-89
2022/07/01 07:55:22;;;;;;;14.38;6.07;;;;;;;36.52;35.63;100074.47;5558091;26;32593;-90
2022/07/01 07:58:25;;;;;;;13.32;5.80;;;;;;;37.17;33.67;100075.75;5493290;32;34615;-90
2022/07/01 08:01:28;;;;;;;11.35;5.57;;;;;;;36.92;33.76;100077.16;5572844;26;33943;-90
2022/07/01 08:08:09;;;;;;;11.70;5.20;;;;;;;37.57;32.94;100088.28;4951161;30;20152;-90
2022/07/01 08:11:12;;;;;;;12.95;5.03;;;;;;;37.52;32.25;100091.00;5545493;32;35210;-87
2022/07/01 08:14:15;;;;;;;10.75;4.82;;;;;;;37.85;31.17;100086.28;5548140;32;34284;-88
2022/07/01 08:17:24;;;;;;;11.52;5.32;;;;;;;37.72;31.52;100086.75;5547789;32;34175;-87
2022/07/01 08:20:27;;;;;;;13.23;5.20;;;;;;;37.75;31.35;100086.19;5552052;32;34223;-88
2022/07/01 08:23:31;;;;;;;11.38;5.55;;;;;;;37.62;31.19;100087.50;5569376;32;33903;-87
2022/07/01 08:26:33;;;;;;;11.02;5.30;;;;;;;38.19;30.65;100084.31;5569956;32;34745;-90
2022/07/01 08:29:39;;;;;;;10.27;5.55;;;;;;;38.05;30.50;100092.22;5569247;32;34932;-91
2022/07/01 08:32:41;;;;;;;26.52;7.07;;;;;;;38.01;29.91;100086.38;5555010;32;32763;-91
2022/07/01 08:35:47;;;;;;;20.50;5.93;;;;;;;38.49;29.93;100094.69;5568869;32;33958;-87
2022/07/01 08:38:50;;;;;;;14.73;5.87;;;;;;;38.68;29.43;100081.22;5555180;32;32020;-88
2022/07/01 08:41:52;;;;;;;12.65;5.57;;;;;;;38.51;29.18;100078.59;5569010;32;34017;-87
2022/07/01 08:44:55;;;;;;;21.70;6.10;;;;;;;38.38;30.08;100087.41;5576559;32;34897;-89
2022/07/01 08:48:02;;;;;;;14.50;5.40;;;;;;;37.86;30.46;100087.94;5567279;32;33775;-88
2022/07/01 08:51:06;;;;;;;19.73;5.80;;;;;;;38.46;29.84;100091.63;5575229;32;34170;-88
2022/07/01 08:54:08;;;;;;;8.70;5.00;;;;;;;39.46;28.81;100084.13;5568466;32;34414;-88
2022/07/01 08:57:11;;;;;;;11.68;4.82;;;;;;;38.52;29.67;100096.06;5556405;32;33830;-88
2022/07/01 09:00:14;;;;;;;12.27;5.30;;;;;;;40.11;27.54;100082.66;5574111;32;34256;-88
2022/07/01 09:03:21;;;;;;;14.27;5.10;;;;;;;40.62;27.40;100086.34;5578825;32;35100;-89
2022/07/01 09:06:29;;;;;;;11.25;5.72;;;;;;;40.51;26.63;100082.81;5578073;32;35075;-89
2022/07/01 09:09:36;;;;;;;11.70;5.20;;;;;;;40.41;27.33;100088.41;5567228;32;35128;-88
2022/07/01 09:12:43;;;;;;;14.82;5.55;;;;;;;40.23;27.67;100075.97;5573292;32;33713;-89
2022/07/01 09:15:46;;;;;;;10.98;5.30;;;;;;;40.02;27.89;100076.84;5567228;32;34286;-89
2022/07/01 09:19:00;;;;;;;15.07;4.82;;;;;;;39.64;27.49;100073.56;5572783;32;33890;-88
2022/07/01 09:22:04;;;;;;;10.15;4.78;;;;;;;40.42;26.48;100071.44;5576257;32;35049;-88
2022/07/01 09:25:13;;;;;;;18.05;5.25;;;;;;;41.20;25.83;100067.37;5569393;32;34915;-88
2022/07/01 09:28:17;;;;;;;;;;;;;;;41.73;25.40;100074.22;5569501;32;34541;-89
2022/07/01 09:31:21;;;;;;;13.07;4.95;;;;;;;41.00;25.75;100071.16;5570550;32;34669;-88
2022/07/01 09:34:24;;;;;;;13.88;5.15;;;;;;;40.13;27.32;100068.50;5569615;32;33454;-88
2022/07/01 09:37:27;;;;;;;17.10;5.07;;;;;;;41.21;24.71;100063.47;5569929;32;34056;-88
2022/07/01 09:40:48;;;;;;;13.45;5.37;;;;;;;41.76;24.09;100063.31;5568885;32;34079;-89
2022/07/01 09:43:50;;;;;;;11.00;4.47;;;;;;;41.21;25.67;100057.91;5573512;32;34551;-89
2022/07/01 09:46:55;;;;;;;11.02;5.05;;;;;;;41.00;25.61;100060.87;5566878;32;35087;-87
2022/07/01 09:49:58;;;;;;;27.95;5.15;;;;;;;41.51;25.04;100060.75;5560391;32;34817;-87
2022/07/01 09:53:01;;;;;;;10.77;4.97;;;;;;;42.24;23.73;100060.84;5542905;32;34215;-88
2022/07/01 09:56:04;;;;;;;9.85;4.55;;;;;;;40.95;24.79;100058.13;5537586;32;34007;-87
2022/07/01 09:59:07;;;;;;;9.98;5.35;;;;;;;41.46;23.92;100059.69;5553997;32;34060;-87
2022/07/01 10:02:11;;;;;;;9.00;4.93;;;;;;;41.62;24.17;100060.34;5551534;32;34633;-88
2022/07/01 10:05:19;;;;;;;8.70;4.87;;;;;;;40.27;25.96;100046.50;5536174;32;34070;-91
2022/07/01 10:08:31;;;;;;;9.68;4.82;;;;;;;40.15;26.22;100049.59;5559174;32;33825;-91
2022/07/01 10:12:01;;;;;;;9.35;4.60;;;;;;;41.66;24.10;100048.66;5542883;32;33539;-90
2022/07/01 10:45:18;;;;;;;15.07;4.72;;;;;;;41.63;23.12;100027.81;5434303;30;20115;-89
2022/07/01 10:59:36;;;;;;;14.60;4.40;;;;;;;40.00;24.46;100020.78;770754;29;21001;-89
2022/07/01 11:39:21;;;;;;;9.63;4.47;;;;;;;37.65;26.35;99994.84;5534904;32;33566;-88
2022/07/01 11:42:25;;;;;;;7.18;4.20;;;;;;;38.17;25.67;99976.59;5547640;32;33981;-91
2022/07/01 11:56:45;;;;;;;9.75;4.70;;;;;;;38.80;25.43;99975.63;848278;30;20394;-87
2022/07/01 11:59:50;;;;;;;14.82;4.30;;;;;;;37.69;26.43;99982.12;5548573;32;32295;-87
2022/07/01 12:02:53;;;;;;;9.32;4.32;;;;;;;38.18;26.10;99974.62;5536125;32;32809;-87
2022/07/01 12:05:57;;;;;;;12.82;4.65;;;;;;;38.79;25.28;99970.37;5550192;32;34914;-87
2022/07/01 12:09:00;;;;;;;6.40;4.32;;;;;;;38.71;25.12;99969.00;5549093;32;35162;-87
2022/07/01 12:12:04;;;;;;;8.57;4.70;;;;;;;38.83;24.96;99957.63;5549045;32;33487;-87
2022/07/01 12:15:13;;;;;;;9.95;4.28;;;;;;;37.99;26.12;99950.16;5548965;32;34469;-87
2022/07/01 12:18:17;;;;;;;12.43;4.30;;;;;;;38.50;25.42;99945.94;5549569;32;33810;-87
2022/07/01 12:21:20;;;;;;;7.70;4.45;;;;;;;38.63;25.07;99939.03;5550632;32;33892;-87
2022/07/01 12:24:23;;;;;;;12.23;4.62;;;;;;;38.17;25.95;99940.59;5555353;32;33944;-87
2022/07/01 12:27:26;;;;;;;11.70;4.47;;;;;;;38.64;24.00;99946.25;5561764;32;34049;-87
2022/07/01 12:30:32;;;;;;;9.98;4.78;;;;;;;38.24;24.67;99943.94;5563929;32;35336;-86
2022/07/01 12:33:47;;;;;;;8.23;4.40;;;;;;;37.44;24.84;99940.19;5559393;32;35252;-86
2022/07/01 12:36:50;;;;;;;10.77;4.20;;;;;;;37.39;24.97;99925.53;5548449;32;34357;-86
2022/07/01 12:40:00;;;;;;;10.35;4.60;;;;;;;37.78;24.20;99924.34;5548493;32;34636;-87
2022/07/01 12:43:06;;;;;;;7.40;4.65;;;;;;;38.22;23.21;99918.47;5534552;32;32796;-86
2022/07/01 12:46:27;;;;;;;13.60;4.12;;;;;;;38.35;23.51;99921.81;5548623;32;33987;-87
2022/07/01 12:49:30;;;;;;;15.20;4.70;;;;;;;37.29;24.03;99920.75;5561637;32;34564;-86
2022/07/01 12:52:32;;;;;;;7.10;4.10;;;;;;;37.32;24.52;99911.91;5553095;32;34687;-88
2022/07/01 12:55:46;;;;;;;10.55;4.57;;;;;;;37.66;24.90;99902.44;5550710;32;35179;-91
2022/07/01 12:58:49;;;;;;;13.38;4.78;;;;;;;37.51;25.04;99892.97;5549299;32;34206;-88
2022/07/01 13:01:52;;;;;;;10.93;5.05;;;;;;;37.41;25.23;99899.28;5549643;32;33935;-88
2022/07/01 13:04:55;;;;;;;7.80;4.45;;;;;;;37.06;25.21;99904.25;5549579;32;34439;-88
2022/07/01 13:07:58;;;;;;;11.77;4.75;;;;;;;37.12;25.53;99904.31;5549290;32;33980;-88
2022/07/01 13:11:00;;;;;;;12.13;4.40;;;;;;;37.52;25.09;99893.78;5549291;32;34501;-88
2022/07/01 13:14:03;;;;;;;11.35;4.65;;;;;;;37.64;25.21;99888.88;5535575;32;33523;-88
2022/07/01 13:17:05;;;;;;;7.45;4.47;;;;;;;37.58;24.92;99899.09;5535770;32;32408;-88
2022/07/01 13:20:09;;;;;;;10.40;4.40;;;;;;;37.08;25.80;99893.78;5550636;32;34214;-88
2022/07/01 13:23:12;;;;;;;9.57;4.95;;;;;;;36.57;26.25;99896.09;5551115;32;34737;-88
2022/07/01 13:26:15;;;;;;;12.20;4.68;;;;;;;36.59;26.24;99880.91;5555069;32;34562;-86
2022/07/01 13:29:18;;;;;;;10.80;4.90;;;;;;;36.52;25.25;99878.37;5550112;32;33956;-86
2022/07/01 13:32:21;;;;;;;9.65;5.05;;;;;;;36.83;24.41;99879.78;5550307;32;33655;-86
2022/07/01 13:35:24;;;;;;;9.32;4.45;;;;;;;36.96;23.94;99873.78;5550563;32;33537;-86
2022/07/01 13:38:27;;;;;;;8.10;4.43;;;;;;;37.19;23.93;99880.03;5550714;32;34653;-86
2022/07/01 13:41:29;;;;;;;7.62;4.28;;;;;;;37.43;23.35;99877.69;5550093;32;35097;-86
2022/07/01 13:44:32;;;;;;;8.98;4.12;;;;;;;37.48;22.90;99866.66;5550012;32;33924;-86
2022/07/01 13:47:35;;;;;;;12.90;4.85;;;;;;;37.37;23.47;99864.09;5549762;32;34538;-86
2022/07/01 13:50:38;;;;;;;8.27;4.28;;;;;;;37.51;22.97;99867.22;5550251;32;34560;-87
2022/07/01 13:53:41;;;;;;;9.88;4.65;;;;;;;37.69;22.60;99865.94;5535123;32;33217;-87
2022/07/01 13:56:45;;;;;;;11.25;5.05;;;;;;;37.31;23.51;99866.03;5549185;32;34378;-86
2022/07/01 13:59:47;;;;;;;9.63;4.90;;;;;;;36.92;24.64;99864.34;5535700;32;32365;-86
2022/07/01 14:02:51;;;;;;;9.80;5.10;;;;;;;37.21;24.24;99861.28;5549080;32;34300;-86
2022/07/01 14:05:54;;;;;;;7.95;5.35;;;;;;;36.96;24.65;99862.75;5536043;32;33427;-87
2022/07/01 14:08:56;;;;;;;12.15;5.32;;;;;;;36.83;25.21;99855.72;5549946;32;33789;-86
2022/07/01 14:12:00;;;;;;;6.65;5.00;;;;;;;37.01;24.90;99859.16;5549626;32;33866;-86
2022/07/01 14:15:05;;;;;;;12.15;4.80;;;;;;;36.88;24.87;99857.69;5558293;32;35883;-87
2022/07/01 14:18:08;;;;;;;10.05;5.10;;;;;;;36.67;24.88;99850.09;5561924;31;34323;-86
2022/07/01 14:21:11;;;;;;;10.45;5.07;;;;;;;36.96;24.19;99859.97;5553261;32;34286;-87
2022/07/01 14:24:14;;;;;;;9.27;4.60;;;;;;;37.21;24.07;99853.78;5548984;32;34378;-87
2022/07/01 14:27:16;;;;;;;11.45;4.37;;;;;;;37.19;24.17;99849.63;5549567;32;33700;-87
2022/07/01 14:30:19;;;;;;;6.55;4.20;;;;;;;37.54;22.81;99850.91;5550370;32;33650;-87
2022/07/01 14:33:22;;;;;;;11.20;4.30;;;;;;;37.66;21.58;99845.19;5550579;32;33920;-86
2022/07/01 14:36:25;;;;;;;11.68;4.55;;;;;;;37.43;21.79;99840.91;5541177;32;33621;-87
2022/07/01 14:39:27;;;;;;;9.20;3.90;;;;;;;37.14;22.70;99833.03;5554041;32;34125;-87
2022/07/01 14:42:30;;;;;;;12.77;4.22;;;;;;;37.29;22.27;99841.41;5555050;32;34694;-85
2022/07/01 14:45:33;;;;;;;9.30;4.40;;;;;;;37.29;22.64;99838.63;5551023;32;34251;-85
2022/07/01 14:48:38;;;;;;;8.07;4.80;;;;;;;37.00;23.54;99829.88;5534802;32;32957;-86
2022/07/01 14:51:41;;;;;;;11.20;4.68;;;;;;;37.18;23.02;99835.00;5549779;32;33983;-87
2022/07/01 14:54:44;;;;;;;7.30;4.20;;;;;;;37.20;22.62;99838.31;5549925;32;33777;-86
2022/07/01 14:57:46;;;;;;;12.50;4.55;;;;;;;37.01;22.87;99828.78;5548778;32;34444;-86
2022/07/01 15:00:49;;;;;;;8.88;4.32;;;;;;;37.01;23.14;99835.16;5548949;32;33856;-86
2022/07/01 15:03:52;;;;;;;15.00;5.10;;;;;;;36.90;23.75;99844.47;5549069;32;35880;-86
2022/07/01 15:06:56;;;;;;;16.65;4.65;;;;;;;36.63;24.28;99845.34;5549016;32;33658;-87
2022/07/01 15:10:01;;;;;;;9.88;4.40;;;;;;;36.41;24.56;99840.72;5549629;32;34964;-87
2022/07/01 15:13:04;;;;;;;11.65;4.85;;;;;;;36.42;24.87;99846.00;5549466;32;33952;-90
2022/07/01 15:16:07;;;;;;;8.48;4.97;;;;;;;36.23;25.36;99851.06;5549047;32;34538;-91
2022/07/01 15:19:16;;;;;;;9.05;4.90;;;;;;;36.37;25.45;99850.63;5537564;32;32656;-88
2022/07/01 15:22:19;;;;;;;8.30;4.80;;;;;;;36.24;25.29;99838.91;5552383;32;35293;-88
2022/07/01 15:25:22;;;;;;;11.23;5.00;;;;;;;36.27;25.54;99829.28;5550115;32;34405;-87
2022/07/01 15:28:25;;;;;;;7.43;5.22;;;;;;;36.23;25.60;99826.22;5551982;32;34561;-87
2022/07/01 15:31:29;;;;;;;9.15;5.03;;;;;;;36.55;24.92;99830.91;5538362;32;32578;-87
2022/07/01 15:34:51;;;;;;;10.07;5.00;;;;;;;36.32;24.22;99826.56;5538087;32;32927;-86
2022/07/01 15:37:54;;;;;;;14.15;4.78;;;;;;;36.44;24.48;99831.91;5554416;31;33634;-86
2022/07/01 15:40:56;;;;;;;11.43;5.18;;;;;;;36.41;24.39;99822.22;5554590;32;34394;-85
2022/07/01 15:44:00;;;;;;;8.43;4.50;;;;;;;36.55;24.43;99824.56;5542342;32;33751;-86
2022/07/01 15:50:29;;;;;;;11.38;4.75;;;;;;;36.63;24.23;99829.62;5535353;31;33917;-87
2022/07/01 15:53:33;;;;;;;14.40;5.00;;;;;;;36.59;24.98;99827.63;5564967;31;35130;-86
2022/07/01 15:56:36;;;;;;;12.40;5.30;;;;;;;36.55;25.00;99824.56;5555480;32;34355;-87
2022/07/01 15:59:38;;;;;;;10.10;5.10;;;;;;;36.28;25.52;99825.41;5549925;32;34027;-88
2022/07/01 16:02:41;;;;;;;12.40;5.12;;;;;;;36.36;25.88;99818.59;5552997;32;34265;-87
2022/07/01 16:05:47;;;;;;;13.07;5.28;;;;;;;36.23;25.62;99819.84;5557844;32;34240;-87
2022/07/01 16:09:08;;;;;;;10.57;5.32;;;;;;;36.12;25.80;99824.44;5562322;32;34904;-87
2022/07/01 16:12:13;;;;;;;23.95;5.40;;;;;;;36.16;25.54;99822.84;5555690;32;33987;-87
2022/07/01 16:15:15;;;;;;;14.25;5.22;;;;;;;36.30;25.93;99820.50;5551346;32;33845;-87
2022/07/01 16:18:18;;;;;;;8.70;5.05;;;;;;;36.34;25.93;99812.50;5548154;32;35136;-87
2022/07/01 16:21:23;;;;;;;15.57;5.82;;;;;;;36.28;26.20;99826.25;5548528;32;35278;-87
2022/07/01 16:24:26;;;;;;;12.52;5.53;;;;;;;36.12;26.94;99822.53;5550103;32;33907;-86
2022/07/01 16:27:33;;;;;;;9.82;5.57;;;;;;;36.34;26.49;99823.56;5535482;32;33338;-86
2022/07/01 16:30:38;;;;;;;13.60;5.50;;;;;;;36.17;26.32;99818.13;5534720;32;32609;-86
2022/07/01 16:33:42;;;;;;;9.45;5.40;;;;;;;36.04;26.67;99822.94;5547714;32;34019;-86
2022/07/01 16:36:51;;;;;;;12.60;5.95;;;;;;;36.22;26.56;99820.94;5534050;32;33299;-88
2022/07/01 16:39:55;;;;;;;11.52;5.62;;;;;;;35.94;27.08;99826.44;5534376;32;32485;-90
2022/07/01 16:43:02;;;;;;;13.10;6.15;;;;;;;35.84;27.74;99827.16;5548592;32;34618;-87
2022/07/01 16:46:06;;;;;;;10.82;5.70;;;;;;;35.87;27.30;99823.91;5547892;32;34189;-86
2022/07/01 16:49:16;;;;;;;11.23;5.65;;;;;;;35.65;27.70;99820.31;5548277;32;34365;-86
2022/07/01 16:52:20;;;;;;;;;;;;;;;35.61;27.58;99822.75;5548125;32;33949;-86
2022/07/01 16:55:29;;;;;;;17.40;5.93;;;;;;;35.45;28.37;99822.53;5547370;32;34542;-86
2022/07/01 16:58:32;;;;;;;16.37;6.03;;;;;;;35.32;28.69;99826.50;5551127;32;34326;-86
2022/07/01 17:01:35;;;;;;;13.20;6.32;;;;;;;35.21;29.19;99824.69;5547721;32;34092;-86
2022/07/01 17:04:39;;;;;;;8.88;6.03;;;;;;;35.24;29.37;99826.13;5547429;32;34370;-86
2022/07/01 17:07:44;;;;;;;14.10;6.68;;;;;;;35.17;30.10;99829.91;5547813;32;34160;-86
2022/07/01 17:10:47;;;;;;;14.75;6.80;;;;;;;35.13;29.74;99827.91;5547442;32;34194;-87
2022/07/01 17:13:51;;;;;;;8.88;6.03;;;;;;;35.19;29.42;99826.88;5548168;32;34299;-86
2022/07/01 17:16:54;;;;;;;17.65;6.28;;;;;;;35.03;29.81;99832.13;5549855;32;33747;-86
2022/07/01 17:19:58;;;;;;;11.45;6.28;;;;;;;35.05;29.61;99837.41;5532797;32;33626;-86
2022/07/01 17:23:42;;;;;;;14.75;6.55;;;;;;;34.93;30.33;99837.47;5546704;32;33820;-86
2022/07/01 17:27:06;;;;;;;15.57;6.30;;;;;;;35.02;30.21;99835.97;5450353;32;33757;-86
2022/07/01 17:30:13;;;;;;;12.68;6.70;;;;;;;34.81;30.28;99834.84;5449426;32;33916;-86
2022/07/01 17:33:16;;;;;;;13.25;6.65;;;;;;;34.60;30.68;99842.78;5448966;32;34100;-86
2022/07/01 17:36:22;;;;;;;13.13;7.20;;;;;;;34.50;31.49;99837.88;5449008;32;34587;-86
2022/07/01 17:39:39;;;;;;;14.63;6.85;;;;;;;34.41;31.38;99833.87;5451279;32;34463;-86
2022/07/01 17:42:44;;;;;;;9.80;6.65;;;;;;;34.16;33.04;99845.25;5451118;32;34106;-90
2022/07/01 17:45:50;;;;;;;11.12;7.03;;;;;;;33.93;33.86;99841.53;5451815;32;34196;-86
2022/07/01 17:48:54;;;;;;;13.75;6.95;;;;;;;33.61;33.76;99834.56;5451480;32;35069;-86
2022/07/01 17:51:59;;;;;;;12.23;7.07;;;;;;;33.42;34.11;99837.44;5452473;32;34494;-86
2022/07/01 17:55:02;;;;;;;13.57;6.57;;;;;;;33.44;33.93;99838.00;5452206;32;33941;-87
2022/07/01 17:58:05;;;;;;;13.43;7.95;;;;;;;33.41;34.09;99840.41;5526708;32;34054;-87
2022/07/01 18:01:11;;;;;;;15.82;7.47;;;;;;;33.34;34.24;99835.88;5549179;32;33689;-87
2022/07/01 18:04:16;;;;;;;13.75;7.72;;;;;;;33.10;35.49;99839.72;5548880;32;34412;-87
2022/07/01 18:07:19;;;;;;;15.50;7.65;;;;;;;32.98;35.59;99850.72;5550297;32;33863;-87
2022/07/01 18:10:22;;;;;;;14.38;7.10;;;;;;;32.89;35.76;99861.22;5550557;32;35315;-87
2022/07/01 18:13:55;;;;;;;14.98;7.57;;;;;;;32.84;35.81;99864.66;5536105;32;32778;-87
2022/07/01 18:17:14;;;;;;;13.70;7.43;;;;;;;32.79;36.21;99878.28;5517734;32;34419;-87
2022/07/01 18:20:58;;;;;;;11.60;7.03;;;;;;;32.65;35.95;99883.12;5552610;32;34068;-87
2022/07/01 18:24:04;;;;;;;11.93;7.05;;;;;;;32.54;36.23;99879.28;5561947;32;34424;-87
2022/07/01 18:27:08;;;;;;;9.20;7.25;;;;;;;32.43;36.50;99882.84;5549917;32;33984;-87
2022/07/01 18:30:13;;;;;;;11.57;6.60;;;;;;;32.26;37.18;99886.19;5550085;32;33946;-87
2022/07/01 18:33:24;;;;;;;14.98;7.47;;;;;;;32.16;37.38;99891.44;5549082;32;33960;-87
2022/07/01 18:36:32;;;;;;;13.88;7.68;;;;;;;31.99;37.66;99900.28;5550606;32;34487;-91
2022/07/01 18:39:35;;;;;;;18.35;7.65;;;;;;;31.86;37.67;99899.38;5535633;32;32988;-88
2022/07/01 18:42:37;;;;;;;23.05;7.55;;;;;;;31.77;37.92;99908.94;5552276;32;34359;-87
2022/07/01 18:45:40;;;;;;;11.77;7.68;;;;;;;31.65;38.59;99908.03;5559469;32;33838;-87
2022/07/01 18:48:43;;;;;;;16.42;7.75;;;;;;;31.60;38.88;99920.53;5551864;32;33385;-87
2022/07/01 18:51:45;;;;;;;9.52;6.62;;;;;;;31.49;38.71;99926.75;5550513;32;32667;-88
2022/07/01 18:54:49;;;;;;;14.35;6.72;;;;;;;31.41;39.05;99922.41;5553890;32;35195;-87
2022/07/01 18:57:51;;;;;;;16.00;7.25;;;;;;;31.42;38.81;99931.47;5551389;32;34583;-88
2022/07/01 19:00:54;;;;;;;14.48;7.10;;;;;;;31.34;38.80;99940.81;5550622;32;34037;-87
2022/07/01 19:03:57;;;;;;;9.48;6.50;;;;;;;31.27;38.99;99949.06;5550467;32;34666;-87
2022/07/01 19:06:59;;;;;;;12.70;6.93;;;;;;;31.23;39.02;99952.47;5550387;32;33477;-87
2022/07/01 19:10:04;;;;;;;17.33;6.68;;;;;;;31.11;39.32;99966.06;5549285;32;34485;-87
2022/07/01 19:13:09;;;;;;;15.15;6.85;;;;;;;31.02;39.73;99968.22;5550258;32;34135;-86
2022/07/01 19:16:18;;;;;;;15.48;6.55;;;;;;;30.98;39.80;99964.25;5548664;32;34080;-86
2022/07/01 19:19:21;;;;;;;11.77;6.45;;;;;;;30.97;39.23;99965.31;5549620;32;35007;-86
2022/07/01 19:22:24;;;;;;;10.63;6.12;;;;;;;30.91;39.20;99967.03;5535426;32;33862;-86
2022/07/01 19:25:28;;;;;;;16.25;6.12;;;;;;;30.91;39.08;99967.03;5550418;32;35219;-86
2022/07/01 19:28:30;;;;;;;12.50;6.65;;;;;;;30.83;39.66;99978.25;5550979;32;33626;-86
2022/07/01 19:31:33;;;;;;;13.90;6.37;;;;;;;30.76;39.36;99978.28;5550678;32;34435;-86
2022/07/01 19:34:36;;;;;;;16.87;6.70;;;;;;;30.74;39.11;99989.47;5549349;32;34529;-87
2022/07/01 19:37:39;;;;;;;15.38;6.43;;;;;;;30.80;39.15;99987.75;5535798;32;32694;-87
2022/07/01 19:40:42;;;;;;;11.35;5.70;;;;;;;30.72;38.98;99980.63;5536308;32;32841;-87
2022/07/01 19:43:44;;;;;;;13.02;5.60;;;;;;;30.69;38.94;100002.13;5549704;32;34274;-87
2022/07/01 19:46:47;;;;;;;13.10;5.45;;;;;;;30.66;38.84;100006.94;5536195;32;34083;-86
2022/07/01 19:49:50;;;;;;;17.90;6.18;;;;;;;30.63;38.98;100006.56;5554776;32;35163;-86
2022/07/01 19:52:53;;;;;;;11.88;5.80;;;;;;;30.54;39.50;100000.50;5552864;32;33770;-86
2022/07/01 19:55:56;;;;;;;9.98;5.85;;;;;;;30.46;39.48;100004.31;5562592;32;36308;-86
2022/07/01 19:58:58;;;;;;;12.63;5.93;;;;;;;30.42;39.62;100015.91;5564047;32;34846;-87
2022/07/01 20:02:07;;;;;;;14.00;6.28;;;;;;;30.32;40.02;100017.19;5560500;31;35166;-87
2022/07/01 20:05:10;;;;;;;15.52;6.25;;;;;;;30.23;40.36;100019.34;5549328;32;34246;-87
2022/07/01 20:08:12;;;;;;;13.30;5.60;;;;;;;30.17;41.03;100028.41;5549696;32;34536;-86
2022/07/01 20:11:15;;;;;;;14.23;7.18;;;;;;;30.28;39.55;100028.78;5535131;32;33751;-86
2022/07/01 20:14:18;;;;;;;56.97;8.65;;;;;;;30.31;40.41;100050.25;5535037;32;32929;-86
2022/07/01 20:17:22;;;;;;;63.42;9.20;;;;;;;30.02;41.92;100080.59;5548375;32;34637;-86
2022/07/01 20:20:26;;;;;;;54.22;8.00;;;;;;;29.23;45.54;100096.72;5548615;32;34172;-86
2022/07/01 20:23:34;;;;;;;85.68;9.20;;;;;;;28.38;48.48;100098.66;5547194;32;34132;-86
2022/07/01 20:26:36;;;;;;;47.05;6.87;;;;;;;27.84;50.02;100106.44;5547755;32;33861;-86
2022/07/01 20:29:39;;;;;;;38.42;6.65;;;;;;;27.06;52.45;100104.41;5547408;32;33716;-86
2022/07/01 20:32:42;;;;;;;46.85;6.15;;;;;;;26.25;55.08;100117.78;5547380;32;33882;-86
2022/07/01 20:35:44;;;;;;;44.78;5.50;;;;;;;26.11;55.72;100122.97;5547858;32;34156;-86
2022/07/01 20:38:47;;;;;;;32.30;4.85;;;;;;;26.00;56.15;100126.16;5535683;32;34108;-86
2022/07/01 20:41:50;;;;;;;28.38;4.82;;;;;;;25.77;56.81;100142.47;5548836;32;33528;-86
2022/07/01 20:44:53;;;;;;;25.02;4.50;;;;;;;25.32;58.70;100148.53;5547770;32;33715;-91
2022/07/01 20:47:57;;;;;;;27.58;4.72;;;;;;;24.90;61.37;100167.72;5547235;32;34406;-91
2022/07/01 20:51:02;;;;;;;15.20;4.18;;;;;;;24.56;64.43;100176.97;5548073;32;34336;-91
2022/07/01 20:54:05;;;;;;;20.80;4.50;;;;;;;24.36;65.42;100190.03;5548802;32;33867;-86
2022/07/01 20:57:08;;;;;;;12.85;3.72;;;;;;;24.42;63.92;100178.50;5548429;32;34315;-86
2022/07/01 21:00:12;;;;;;;21.75;4.03;;;;;;;24.28;64.10;100184.66;5548542;32;34216;-86
2022/07/01 21:03:15;;;;;;;16.25;3.92;;;;;;;23.96;65.84;100169.06;5547531;32;34100;-86
2022/07/01 21:06:18;;;;;;;12.20;4.03;;;;;;;23.83;66.13;100166.84;5548903;32;34565;-87
2022/07/01 21:09:20;;;;;;;22.17;4.10;;;;;;;23.70;67.13;100171.91;5533965;32;33023;-87